createdAt,value
2023-09-14T00:01:16.982Z,6.32
2023-09-14T00:03:44.635Z,6.93
2023-09-14T00:06:11.797Z,8.05
2023-09-14T00:08:39.359Z,10.83
2023-09-14T00:11:06.443Z,11.57
2023-09-14T00:13:33.910Z,12.30
2023-09-14T00:16:04.127Z,9.93
2023-09-14T00:18:31.504Z,9.55
2023-09-14T00:20:59.035Z,9.20
2023-09-14T00:23:26.319Z,9.88
2023-09-14T00:25:53.275Z,14.65
2023-09-14T00:28:20.570Z,10.68
2023-09-14T00:30:47.738Z,11.00
2023-09-14T00:33:15.193Z,13.43
2023-09-14T00:35:42.128Z,13.30
2023-09-14T00:38:09.449Z,11.05
2023-09-14T00:40:36.807Z,8.65
2023-09-14T00:43:04.386Z,8.90
2023-09-14T00:45:33.366Z,8.47
2023-09-14T00:48:04.010Z,7.75
2023-09-14T00:50:31.930Z,8.02
2023-09-14T00:53:04.295Z,8.05
2023-09-14T00:55:32.079Z,7.50
2023-09-14T00:58:00.005Z,12.80
2023-09-14T01:00:27.676Z,10.95
2023-09-14T01:02:57.052Z,10.00
2023-09-14T01:05:28.463Z,8.52
2023-09-14T01:07:56.005Z,6.80
2023-09-14T01:10:23.077Z,7.03
2023-09-14T01:12:50.773Z,6.88
2023-09-14T01:15:29.321Z,7.07
2023-09-14T01:18:08.715Z,7.07
2023-09-14T01:21:00.607Z,6.75
2023-09-14T01:23:49.023Z,6.93
2023-09-14T01:26:17.231Z,6.82
2023-09-14T01:28:44.869Z,7.22
2023-09-14T01:31:12.495Z,8.48
2023-09-14T01:33:40.168Z,10.60
2023-09-14T01:36:12.294Z,8.20
2023-09-14T01:38:40.747Z,9.00
2023-09-14T01:41:08.388Z,9.07
2023-09-14T01:43:36.254Z,8.38
2023-09-14T01:46:04.597Z,7.93
2023-09-14T01:48:32.115Z,7.90
2023-09-14T01:50:59.384Z,11.20
2023-09-14T01:53:26.881Z,12.60
2023-09-14T01:55:53.827Z,11.25
2023-09-14T01:58:21.651Z,10.43
2023-09-14T02:00:49.236Z,8.40
2023-09-14T02:03:16.712Z,7.45
2023-09-14T02:05:43.829Z,6.63
2023-09-14T02:08:11.187Z,6.80
2023-09-14T02:10:38.148Z,5.93
2023-09-14T02:13:05.437Z,6.37
2023-09-14T02:15:32.457Z,5.88
2023-09-14T02:17:59.856Z,7.45
2023-09-14T02:20:27.158Z,8.52
2023-09-14T02:22:54.382Z,8.70
2023-09-14T02:25:21.299Z,8.67
2023-09-14T02:27:49.039Z,7.78
2023-09-14T02:30:16.100Z,8.35
2023-09-14T02:32:43.591Z,9.25
2023-09-14T02:35:10.643Z,8.63
2023-09-14T02:37:37.910Z,9.30
2023-09-14T02:40:07.615Z,8.73
2023-09-14T02:42:38.199Z,7.30
2023-09-14T02:45:07.703Z,8.88
2023-09-14T02:47:34.981Z,7.90
2023-09-14T02:50:02.012Z,7.67
2023-09-14T02:52:29.254Z,7.75
2023-09-14T02:54:56.414Z,6.85
2023-09-14T02:57:23.795Z,7.05
2023-09-14T02:59:54.411Z,7.13
2023-09-14T03:02:25.462Z,8.33
2023-09-14T03:04:52.534Z,9.00
2023-09-14T03:07:20.043Z,8.38
2023-09-14T03:09:47.930Z,9.50
2023-09-14T03:12:15.269Z,8.15
2023-09-14T03:14:42.670Z,7.63
2023-09-14T03:17:10.011Z,8.45
2023-09-14T03:19:37.095Z,8.32
2023-09-14T03:22:04.645Z,8.80
2023-09-14T03:24:31.645Z,10.45
2023-09-14T03:26:58.996Z,7.37
2023-09-14T03:29:25.927Z,7.55
2023-09-14T03:31:54.320Z,5.68
2023-09-14T03:34:21.410Z,5.93
2023-09-14T03:36:49.273Z,7.00
2023-09-14T03:39:16.644Z,6.40
2023-09-14T03:41:44.139Z,7.05
2023-09-14T03:44:11.063Z,5.30
2023-09-14T03:46:38.495Z,3.78
2023-09-14T03:49:08.327Z,3.90
2023-09-14T03:51:36.639Z,4.03
2023-09-14T03:54:03.633Z,4.20
2023-09-14T03:56:30.921Z,5.10
2023-09-14T03:58:57.921Z,4.60
2023-09-14T04:01:25.559Z,5.72
2023-09-14T04:03:55.534Z,5.33
2023-09-14T04:06:23.504Z,5.45
2023-09-14T04:08:50.476Z,5.30
2023-09-14T04:11:17.774Z,5.45
2023-09-14T04:13:44.731Z,5.20
2023-09-14T04:16:13.359Z,5.90
2023-09-14T04:18:42.735Z,7.13
2023-09-14T04:21:10.173Z,9.45
2023-09-14T04:23:37.453Z,9.98
2023-09-14T04:26:08.554Z,10.90
2023-09-14T04:28:36.244Z,12.27
2023-09-14T04:31:06.519Z,9.73
2023-09-14T04:33:35.141Z,8.85
2023-09-14T04:36:04.161Z,9.73
2023-09-14T04:38:33.894Z,11.70
2023-09-14T04:41:05.566Z,10.87
2023-09-14T04:43:34.072Z,9.82
2023-09-14T04:46:02.847Z,8.48
2023-09-14T04:48:30.018Z,7.72
2023-09-14T04:51:01.559Z,7.03
2023-09-14T04:53:28.842Z,6.70
2023-09-14T04:55:56.430Z,7.10
2023-09-14T04:58:26.478Z,9.05
2023-09-14T05:00:54.664Z,7.60
2023-09-14T05:03:22.242Z,8.13
2023-09-14T05:05:54.920Z,8.37
2023-09-14T05:08:23.273Z,8.15
2023-09-14T05:10:53.497Z,7.93
2023-09-14T05:13:24.494Z,6.28
2023-09-14T05:15:52.310Z,7.53
2023-09-14T05:18:24.895Z,6.60
2023-09-14T05:20:52.927Z,5.88
2023-09-14T05:23:19.920Z,6.95
2023-09-14T05:25:48.682Z,6.18
2023-09-14T05:28:16.455Z,5.30
2023-09-14T05:30:45.146Z,5.13
2023-09-14T05:33:13.913Z,5.32
2023-09-14T05:35:42.832Z,4.78
2023-09-14T05:38:10.383Z,5.32
2023-09-14T05:40:37.819Z,5.70
2023-09-14T05:43:05.217Z,6.23
2023-09-14T05:45:33.490Z,7.35
2023-09-14T05:48:01.841Z,6.78
2023-09-14T05:50:29.853Z,7.18
2023-09-14T05:52:57.520Z,6.75
2023-09-14T05:55:25.171Z,7.50
2023-09-14T05:57:55.106Z,8.30
2023-09-14T06:00:22.696Z,7.57
2023-09-14T06:02:54.312Z,7.57
2023-09-14T06:05:25.836Z,8.80
2023-09-14T06:07:55.107Z,10.73
2023-09-14T06:10:24.595Z,10.15
2023-09-14T06:12:52.459Z,10.63
2023-09-14T06:15:20.043Z,9.20
2023-09-14T06:17:48.883Z,8.10
2023-09-14T06:20:17.157Z,7.63
2023-09-14T06:22:44.452Z,7.18
2023-09-14T06:25:12.318Z,7.60
2023-09-14T06:27:39.308Z,7.40
2023-09-14T06:30:07.820Z,6.93
2023-09-14T06:32:34.834Z,7.20
2023-09-14T06:35:02.776Z,6.85
2023-09-14T06:37:29.855Z,5.30
2023-09-14T06:39:57.971Z,4.88
2023-09-14T06:42:24.948Z,5.63
2023-09-14T06:44:52.245Z,5.90
2023-09-14T06:47:19.228Z,5.93
2023-09-14T06:49:46.506Z,6.10
2023-09-14T06:52:13.464Z,4.80
2023-09-14T06:54:40.882Z,5.68
2023-09-14T06:57:07.885Z,5.80
2023-09-14T06:59:35.651Z,5.65
2023-09-14T07:02:03.851Z,6.00
2023-09-14T07:04:31.893Z,4.97
2023-09-14T07:06:59.199Z,7.25
2023-09-14T07:09:26.653Z,7.23
2023-09-14T07:11:53.635Z,6.70
2023-09-14T07:14:21.054Z,5.57
2023-09-14T07:16:48.152Z,6.15
2023-09-14T07:19:15.663Z,7.50
2023-09-14T07:21:42.853Z,6.47
2023-09-14T07:24:10.364Z,4.95
2023-09-14T07:26:39.941Z,6.10
2023-09-14T07:29:08.868Z,6.38
2023-09-14T07:31:36.438Z,6.13
2023-09-14T07:34:04.267Z,4.57
2023-09-14T07:36:31.172Z,5.13
2023-09-14T07:38:58.460Z,4.90
2023-09-14T07:41:27.756Z,4.70
2023-09-14T07:43:55.551Z,5.65
2023-09-14T07:46:22.615Z,5.27
2023-09-14T07:48:50.213Z,6.70
2023-09-14T07:51:17.219Z,6.22
2023-09-14T07:53:44.806Z,5.35
2023-09-14T07:56:11.938Z,6.32
2023-09-14T07:58:39.312Z,6.97
2023-09-14T08:01:06.271Z,6.32
2023-09-14T08:03:33.590Z,5.80
2023-09-14T08:06:00.606Z,6.07
2023-09-14T08:08:27.916Z,5.65
2023-09-14T08:10:57.063Z,5.10
2023-09-14T08:13:24.701Z,5.45
2023-09-14T08:15:51.988Z,6.32
2023-09-14T08:18:20.542Z,6.15
2023-09-14T08:20:48.295Z,6.18
2023-09-14T08:23:19.289Z,5.67
2023-09-14T08:25:47.786Z,5.30
2023-09-14T08:28:16.937Z,7.25
2023-09-14T08:30:44.788Z,8.23
2023-09-14T08:33:14.355Z,6.95
2023-09-14T08:35:42.256Z,8.10
2023-09-14T08:38:09.540Z,7.60
2023-09-14T08:40:37.346Z,8.40
2023-09-14T08:43:10.723Z,8.52
2023-09-14T08:45:38.701Z,6.70
2023-09-14T08:48:06.972Z,5.80
2023-09-14T08:50:34.755Z,5.85
2023-09-14T08:53:02.558Z,6.15
2023-09-14T08:55:36.865Z,7.03
2023-09-14T08:58:04.628Z,6.50
2023-09-14T09:00:32.911Z,6.80
2023-09-14T09:03:00.675Z,6.93
2023-09-14T09:05:28.855Z,5.82
2023-09-14T09:07:58.393Z,7.35
2023-09-14T09:10:27.455Z,7.78
2023-09-14T09:13:04.030Z,6.77
2023-09-14T09:15:37.957Z,6.60
2023-09-14T09:18:10.645Z,6.65
2023-09-14T09:20:41.451Z,7.22
2023-09-14T09:23:10.024Z,8.40
2023-09-14T09:25:44.484Z,6.53
2023-09-14T09:28:11.891Z,7.57
2023-09-14T09:30:38.996Z,9.20
2023-09-14T09:33:06.986Z,6.50
2023-09-14T09:35:35.917Z,6.80
2023-09-14T09:38:17.194Z,8.57
2023-09-14T09:40:46.288Z,6.93
2023-09-14T09:43:17.774Z,8.80
2023-09-14T09:45:47.660Z,7.65
2023-09-14T09:48:15.315Z,8.35
2023-09-14T09:50:42.522Z,8.97
2023-09-14T09:53:12.153Z,8.13
2023-09-14T09:55:40.460Z,7.22
2023-09-14T09:58:09.122Z,8.50
2023-09-14T10:00:39.049Z,6.07
2023-09-14T10:03:07.662Z,9.10
2023-09-14T10:05:42.237Z,7.50
2023-09-14T10:08:18.076Z,7.47
2023-09-14T10:10:53.016Z,6.53
2023-09-14T10:13:23.737Z,6.78
2023-09-14T10:15:55.909Z,7.17
2023-09-14T10:18:29.532Z,6.55
2023-09-14T10:20:57.018Z,7.90
2023-09-14T10:23:25.281Z,6.93
2023-09-14T10:25:53.376Z,6.47
2023-09-14T10:28:22.043Z,5.27
2023-09-14T10:30:52.303Z,6.63
2023-09-14T10:33:21.643Z,6.78
2023-09-14T10:35:48.911Z,6.18
2023-09-14T10:38:18.228Z,5.55
2023-09-14T10:40:46.289Z,7.67
2023-09-14T10:43:13.566Z,5.88
2023-09-14T10:45:44.614Z,5.82
2023-09-14T10:48:19.984Z,5.40
2023-09-14T10:50:50.658Z,5.25
2023-09-14T10:53:18.012Z,5.33
2023-09-14T10:55:45.053Z,4.45
2023-09-14T10:58:17.640Z,4.80
2023-09-14T11:03:23.172Z,4.82
2023-09-14T11:05:53.521Z,4.60
2023-09-14T11:08:23.134Z,6.85
2023-09-14T11:11:03.034Z,5.15
2023-09-14T11:13:36.116Z,5.85
2023-09-14T11:16:16.247Z,6.93
2023-09-14T11:18:44.123Z,5.77
2023-09-14T11:21:33.489Z,6.43
2023-09-14T11:24:09.300Z,5.50
2023-09-14T11:26:41.887Z,6.28
2023-09-14T11:29:10.769Z,7.28
2023-09-14T11:31:59.625Z,5.63
2023-09-14T11:34:33.681Z,5.50
2023-09-14T11:37:07.715Z,7.30
2023-09-14T11:39:38.450Z,5.68
2023-09-14T11:42:10.623Z,5.53
2023-09-14T11:44:53.520Z,6.40
2023-09-14T11:47:27.944Z,6.70
2023-09-14T11:50:01.317Z,5.50
2023-09-14T11:52:32.120Z,5.55
2023-09-14T11:54:59.470Z,4.75
2023-09-14T11:57:30.168Z,4.67
2023-09-14T11:59:57.497Z,4.38
2023-09-14T12:02:24.855Z,5.10
2023-09-14T12:04:54.262Z,5.10
2023-09-14T12:07:24.699Z,4.93
2023-09-14T12:09:52.097Z,4.13
2023-09-14T12:12:27.829Z,3.88
2023-09-14T12:14:55.719Z,4.20
2023-09-14T12:17:24.872Z,3.92
2023-09-14T12:19:56.460Z,3.80
2023-09-14T12:22:27.868Z,3.53
2023-09-14T12:24:56.330Z,3.50
2023-09-14T12:27:24.395Z,3.80
2023-09-14T12:29:52.537Z,3.25
2023-09-14T12:32:20.091Z,3.00
2023-09-14T12:34:47.605Z,3.27
2023-09-14T12:37:19.186Z,3.50
2023-09-14T12:39:53.513Z,3.50
2023-09-14T12:42:25.788Z,3.00
2023-09-14T12:44:55.376Z,3.25
2023-09-14T12:47:22.737Z,3.77
2023-09-14T12:49:50.108Z,2.85
2023-09-14T12:52:17.754Z,3.00
2023-09-14T12:54:45.158Z,3.15
2023-09-14T12:57:16.515Z,3.05
2023-09-14T13:00:19.277Z,3.10
2023-09-14T13:02:50.882Z,3.00
2023-09-14T13:05:22.133Z,3.40
2023-09-14T13:07:54.115Z,3.30
2023-09-14T13:10:26.251Z,3.38
2023-09-14T13:13:09.366Z,2.90
2023-09-14T13:15:44.889Z,2.90
2023-09-14T13:18:18.749Z,2.33
2023-09-14T13:20:53.250Z,2.50
2023-09-14T13:23:21.245Z,2.97
2023-09-14T13:25:48.549Z,2.80
2023-09-14T13:28:16.436Z,2.78
2023-09-14T13:30:43.800Z,2.95
2023-09-14T13:33:11.015Z,2.85
2023-09-14T13:35:38.972Z,2.80
2023-09-14T13:38:05.917Z,2.33
2023-09-14T13:40:33.166Z,2.90
2023-09-14T13:43:02.053Z,3.08
2023-09-14T13:45:30.827Z,2.70
2023-09-14T13:47:58.603Z,2.80
2023-09-14T13:50:27.018Z,2.93
2023-09-14T13:52:53.986Z,2.83
2023-09-14T13:55:21.290Z,2.50
2023-09-14T13:57:48.855Z,2.67
2023-09-14T14:00:18.238Z,2.42
2023-09-14T14:02:55.911Z,2.80
2023-09-14T14:05:23.904Z,2.50
2023-09-14T14:07:50.840Z,2.58
2023-09-14T14:10:18.183Z,2.80
2023-09-14T14:12:45.408Z,3.08
2023-09-14T14:15:13.502Z,2.30
2023-09-14T14:17:40.975Z,2.20
2023-09-14T14:20:11.669Z,2.75
2023-09-14T14:22:39.081Z,2.45
2023-09-14T14:25:07.026Z,2.80
2023-09-14T14:27:34.387Z,2.70
2023-09-14T14:30:01.720Z,2.80
2023-09-14T14:32:29.746Z,3.25
2023-09-14T14:34:57.085Z,2.92
2023-09-14T14:37:24.177Z,2.90
2023-09-14T14:39:52.740Z,2.83
2023-09-14T14:42:20.649Z,2.70
2023-09-14T14:44:48.916Z,3.15
2023-09-14T14:47:19.950Z,2.80
2023-09-14T14:49:48.100Z,2.50
2023-09-14T14:52:15.144Z,2.67
2023-09-14T14:54:42.983Z,3.03
2023-09-14T14:57:11.596Z,2.42
2023-09-14T14:59:39.573Z,2.40
2023-09-14T15:02:07.178Z,2.40
2023-09-14T15:04:35.875Z,2.80
2023-09-14T15:07:03.870Z,2.10
2023-09-14T15:09:31.582Z,2.70
2023-09-14T15:11:58.672Z,2.67
2023-09-14T15:14:25.992Z,2.85
2023-09-14T15:16:53.087Z,2.40
2023-09-14T15:19:22.068Z,2.60
2023-09-14T15:21:49.054Z,2.63
2023-09-14T15:24:16.399Z,2.90
2023-09-14T15:26:43.344Z,2.63
2023-09-14T15:29:10.595Z,2.30
2023-09-14T15:31:39.286Z,2.70
2023-09-14T15:34:08.401Z,3.00
2023-09-14T15:36:35.425Z,2.80
2023-09-14T15:39:02.697Z,2.90
2023-09-14T15:41:30.310Z,2.73
2023-09-14T15:43:57.672Z,3.10
2023-09-14T15:46:25.916Z,3.30
2023-09-14T15:48:53.418Z,2.85
2023-09-14T15:51:21.564Z,3.22
2023-09-14T15:53:49.321Z,2.83
2023-09-14T15:56:16.753Z,3.03
2023-09-14T15:58:44.338Z,3.25
2023-09-14T16:01:11.567Z,3.20
2023-09-14T16:03:39.096Z,3.08
2023-09-14T16:06:07.030Z,2.87
2023-09-14T16:08:34.336Z,3.08
2023-09-14T16:11:01.254Z,2.70
2023-09-14T16:13:28.522Z,3.03
2023-09-14T16:15:55.591Z,2.92
2023-09-14T16:18:22.915Z,3.03
2023-09-14T16:20:49.885Z,3.47
2023-09-14T16:23:17.647Z,2.75
2023-09-14T16:25:44.649Z,3.20
2023-09-14T16:28:14.583Z,3.38
2023-09-14T16:30:41.899Z,3.60
2023-09-14T16:33:09.464Z,3.30
2023-09-14T16:35:39.555Z,3.30
2023-09-14T16:38:06.928Z,3.50
2023-09-14T16:40:34.414Z,3.70
2023-09-14T16:43:01.831Z,3.50
2023-09-14T16:45:29.037Z,3.40
2023-09-14T16:47:59.287Z,3.25
2023-09-14T16:50:26.324Z,3.42
2023-09-14T16:52:53.549Z,3.30
2023-09-14T16:55:21.662Z,3.43
2023-09-14T16:57:50.905Z,3.67
2023-09-14T17:00:18.041Z,3.10
2023-09-14T17:02:45.504Z,3.10
2023-09-14T17:05:12.486Z,3.30
2023-09-14T17:07:42.788Z,3.40
2023-09-14T17:10:10.434Z,3.55
2023-09-14T17:12:37.826Z,3.40
2023-09-14T17:15:08.592Z,3.13
2023-09-14T17:17:36.175Z,3.50
2023-09-14T17:20:06.741Z,3.60
2023-09-14T17:22:34.159Z,3.60
2023-09-14T17:25:01.439Z,3.55
2023-09-14T17:27:28.917Z,3.50
2023-09-14T17:29:55.845Z,4.13
2023-09-14T17:32:23.816Z,3.33
2023-09-14T17:34:50.848Z,3.60
2023-09-14T17:37:19.143Z,3.80
2023-09-14T17:39:46.107Z,3.50
2023-09-14T17:42:13.489Z,3.60
2023-09-14T17:44:42.381Z,3.60
2023-09-14T17:47:10.090Z,4.25
2023-09-14T17:49:37.046Z,32.72
2023-09-14T17:52:07.376Z,22.35
2023-09-14T17:54:36.086Z,8.23
2023-09-14T17:57:03.603Z,5.40
2023-09-14T17:59:30.955Z,4.45
2023-09-14T18:01:59.566Z,3.35
2023-09-14T18:04:28.248Z,3.67
2023-09-14T18:06:55.528Z,3.67
2023-09-14T18:09:23.021Z,3.50
2023-09-14T18:11:50.292Z,3.42
2023-09-14T18:14:17.861Z,4.40
2023-09-14T18:16:45.364Z,3.55
2023-09-14T18:19:16.406Z,3.20
2023-09-14T18:21:43.783Z,3.20
2023-09-14T18:24:10.742Z,3.40
2023-09-14T18:26:37.966Z,3.17
2023-09-14T18:29:05.323Z,3.55
2023-09-14T18:31:32.664Z,3.45
2023-09-14T18:34:02.162Z,3.33
2023-09-14T18:36:30.977Z,3.45
2023-09-14T18:38:57.989Z,3.65
2023-09-14T18:41:25.337Z,3.47
2023-09-14T18:43:52.245Z,3.70
2023-09-14T18:46:21.546Z,3.50
2023-09-14T18:48:48.924Z,3.72
2023-09-14T18:51:16.567Z,3.50
2023-09-14T18:53:47.303Z,3.30
2023-09-14T18:56:15.903Z,3.30
2023-09-14T18:59:18.141Z,3.13
2023-09-14T19:01:30.673Z,3.85
2023-09-14T19:03:59.212Z,4.00
2023-09-14T19:06:27.387Z,4.20
2023-09-14T19:08:56.066Z,3.35
2023-09-14T19:11:23.781Z,3.40
2023-09-14T19:13:51.385Z,3.63
2023-09-14T19:16:18.763Z,3.70
2023-09-14T19:18:46.093Z,4.45
2023-09-14T19:21:13.807Z,4.50
2023-09-14T19:23:40.827Z,3.97
2023-09-14T19:26:08.178Z,4.80
2023-09-14T19:28:35.115Z,4.70
2023-09-14T19:31:03.872Z,4.05
2023-09-14T19:33:30.937Z,4.28
2023-09-14T19:35:58.168Z,4.83
2023-09-14T19:38:25.564Z,4.70
2023-09-14T19:40:52.914Z,4.20
2023-09-14T19:43:19.836Z,4.50
2023-09-14T19:45:47.190Z,4.60
2023-09-14T19:48:14.444Z,4.70
2023-09-14T19:50:41.982Z,4.00
2023-09-14T19:53:08.944Z,3.97
2023-09-14T19:55:36.230Z,4.45
2023-09-14T19:58:04.848Z,4.82
2023-09-14T20:00:32.252Z,5.60
2023-09-14T20:02:59.433Z,5.22
2023-09-14T20:05:27.048Z,5.30
2023-09-14T20:08:07.196Z,5.22
2023-09-14T20:10:35.268Z,4.30
2023-09-14T20:13:05.801Z,4.77
2023-09-14T20:15:33.995Z,4.82
2023-09-14T20:18:01.160Z,4.65
2023-09-14T20:20:29.123Z,5.70
2023-09-14T20:22:56.118Z,4.50
2023-09-14T20:25:23.415Z,5.17
2023-09-14T20:27:50.906Z,5.30
2023-09-14T20:30:18.386Z,5.50
2023-09-14T20:32:45.448Z,5.10
2023-09-14T20:35:12.788Z,5.97
2023-09-14T20:37:39.973Z,4.37
2023-09-14T20:40:11.418Z,5.18
2023-09-14T20:42:39.944Z,5.28
2023-09-14T20:45:16.796Z,6.28
2023-09-14T20:47:44.568Z,5.43
2023-09-14T20:50:15.479Z,5.33
2023-09-14T20:52:46.785Z,5.88
2023-09-14T20:55:14.916Z,4.95
2023-09-14T20:57:42.536Z,5.35
2023-09-14T21:00:11.481Z,5.85
2023-09-14T21:02:39.012Z,6.47
2023-09-14T21:05:09.325Z,5.90
2023-09-14T21:07:37.099Z,5.47
2023-09-14T21:10:05.176Z,5.15
2023-09-14T21:12:32.962Z,5.43
2023-09-14T21:15:00.525Z,5.43
2023-09-14T21:17:27.500Z,5.50
2023-09-14T21:19:57.756Z,5.00
2023-09-14T21:22:26.387Z,5.90
2023-09-14T21:24:53.956Z,5.32
2023-09-14T21:27:21.367Z,5.40
2023-09-14T21:29:49.861Z,5.35
2023-09-14T21:32:16.926Z,5.70
2023-09-14T21:34:44.407Z,5.38
2023-09-14T21:37:12.119Z,5.35
2023-09-14T21:39:39.700Z,5.27
2023-09-14T21:42:06.710Z,4.57
2023-09-14T21:44:34.014Z,4.93
2023-09-14T21:47:03.540Z,4.60
2023-09-14T21:49:42.183Z,5.13
2023-09-14T21:52:12.335Z,5.90
2023-09-14T21:54:40.530Z,5.53
2023-09-14T21:57:08.782Z,5.63
2023-09-14T21:59:39.649Z,5.28
2023-09-14T22:02:07.017Z,5.78
2023-09-14T22:04:36.241Z,5.77
2023-09-14T22:07:04.310Z,5.22
2023-09-14T22:09:36.605Z,5.55
2023-09-14T22:12:04.726Z,5.50
2023-09-14T22:14:32.319Z,5.78
2023-09-14T22:17:01.646Z,5.97
2023-09-14T22:19:30.649Z,5.45
2023-09-14T22:21:58.752Z,5.65
2023-09-14T22:24:26.633Z,5.55
2023-09-14T22:26:53.632Z,5.40
2023-09-14T22:29:21.601Z,5.43
2023-09-14T22:31:48.812Z,5.10
2023-09-14T22:34:16.280Z,5.78
2023-09-14T22:36:43.638Z,5.22
2023-09-14T22:39:11.424Z,5.20
2023-09-14T22:41:39.383Z,5.00
2023-09-14T22:44:07.547Z,5.28
2023-09-14T22:46:35.355Z,4.82
2023-09-14T22:49:02.790Z,6.47
2023-09-14T22:51:29.961Z,6.45
2023-09-14T22:53:58.908Z,5.70
2023-09-14T22:56:28.907Z,5.57
2023-09-14T22:58:56.219Z,5.13
2023-09-14T23:01:27.981Z,5.63
2023-09-14T23:03:56.621Z,5.72
2023-09-14T23:06:24.029Z,5.77
2023-09-14T23:08:51.448Z,5.47
2023-09-14T23:11:25.130Z,5.93
2023-09-14T23:13:53.354Z,5.43
2023-09-14T23:16:28.643Z,5.78
2023-09-14T23:18:56.786Z,6.13
2023-09-14T23:21:23.761Z,6.22
2023-09-14T23:23:51.264Z,6.38
2023-09-14T23:26:18.190Z,5.60
2023-09-14T23:28:45.908Z,5.68
2023-09-14T23:31:13.526Z,6.47
2023-09-14T23:33:42.070Z,5.88
2023-09-14T23:36:09.807Z,5.82
2023-09-14T23:38:40.730Z,6.10
2023-09-14T23:41:12.598Z,5.45
2023-09-14T23:43:41.855Z,5.67
2023-09-14T23:46:12.514Z,6.13
2023-09-14T23:48:40.946Z,6.10
2023-09-14T23:51:09.111Z,5.45
2023-09-14T23:53:36.985Z,5.50
2023-09-14T23:56:06.611Z,5.33
2023-09-14T23:58:33.851Z,6.18
